sensor_id;sensor_type;location;lat;lon;timestamp;pressure;altitude;pressure_sealevel;temperature;humidity
45541;BME280;31265;49.680;8.608;2023-03-23T00:00:13;99785.66;;;13.18;100.00
45541;BME280;31265;49.680;8.608;2023-03-23T00:02:40;99797.72;;;13.11;100.00
45541;BME280;31265;49.680;8.608;2023-03-23T00:05:09;99790.81;;;13.12;100.00
45541;BME280;31265;49.680;8.608;2023-03-23T00:07:37;99790.47;;;13.18;100.00
45541;BME280;31265;49.680;8.608;2023-03-23T00:10:06;99791.84;;;13.07;100.00
45541;BME280;31265;49.680;8.608;2023-03-23T00:12:33;99802.28;;;13.06;100.00
45541;BME280;31265;49.680;8.608;2023-03-23T00:15:01;99794.41;;;13.24;100.00
45541;BME280;31265;49.680;8.608;2023-03-23T00:17:30;99786.97;;;13.17;100.00
45541;BME280;31265;49.680;8.608;2023-03-23T00:19:58;99781.25;;;13.15;100.00
45541;BME280;31265;49.680;8.608;2023-03-23T00:22:27;99775.69;;;13.15;100.00
45541;BME280;31265;49.680;8.608;2023-03-23T00:24:55;99771.59;;;13.16;100.00
45541;BME280;31265;49.680;8.608;2023-03-23T00:27:24;99772.59;;;13.21;100.00
45541;BME280;31265;49.680;8.608;2023-03-23T00:29:51;99770.72;;;13.13;100.00
45541;BME280;31265;49.680;8.608;2023-03-23T00:32:20;99769.88;;;13.11;100.00
45541;BME280;31265;49.680;8.608;2023-03-23T00:34:55;99758.72;;;13.11;100.00
45541;BME280;31265;49.680;8.608;2023-03-23T00:37:24;99761.38;;;13.09;100.00
45541;BME280;31265;49.680;8.608;2023-03-23T00:39:52;99747.28;;;13.07;100.00
45541;BME280;31265;49.680;8.608;2023-03-23T00:42:24;99749.63;;;13.10;100.00
45541;BME280;31265;49.680;8.608;2023-03-23T00:44:52;99765.34;;;13.06;100.00
45541;BME280;31265;49.680;8.608;2023-03-23T00:47:26;99758.03;;;13.01;100.00
45541;BME280;31265;49.680;8.608;2023-03-23T00:49:53;99765.59;;;13.10;100.00
45541;BME280;31265;49.680;8.608;2023-03-23T00:52:22;99775.97;;;13.19;100.00
45541;BME280;31265;49.680;8.608;2023-03-23T00:54:49;99778.75;;;13.19;100.00
45541;BME280;31265;49.680;8.608;2023-03-23T00:57:18;99771.59;;;13.16;100.00
45541;BME280;31265;49.680;8.608;2023-03-23T00:59:47;99778.81;;;13.09;100.00
45541;BME280;31265;49.680;8.608;2023-03-23T01:02:14;99766.75;;;13.17;100.00
45541;BME280;31265;49.680;8.608;2023-03-23T01:04:43;99759.41;;;13.21;100.00
45541;BME280;31265;49.680;8.608;2023-03-23T01:07:12;99769.38;;;13.15;100.00
45541;BME280;31265;49.680;8.608;2023-03-23T01:09:40;99768.66;;;13.14;100.00
45541;BME280;31265;49.680;8.608;2023-03-23T01:12:11;99751.94;;;13.14;100.00
45541;BME280;31265;49.680;8.608;2023-03-23T01:14:39;99757.06;;;13.18;100.00
45541;BME280;31265;49.680;8.608;2023-03-23T01:17:08;99755.78;;;13.09;100.00
45541;BME280;31265;49.680;8.608;2023-03-23T01:19:36;99754.31;;;13.08;100.00
45541;BME280;31265;49.680;8.608;2023-03-23T01:22:06;99747.78;;;13.03;100.00
45541;BME280;31265;49.680;8.608;2023-03-23T01:24:33;99754.88;;;13.16;100.00
45541;BME280;31265;49.680;8.608;2023-03-23T01:27:01;99754.47;;;13.10;100.00
45541;BME280;31265;49.680;8.608;2023-03-23T01:29:32;99747.56;;;13.11;100.00
45541;BME280;31265;49.680;8.608;2023-03-23T01:32:00;99746.16;;;13.00;100.00
45541;BME280;31265;49.680;8.608;2023-03-23T01:34:29;99740.59;;;13.00;100.00
45541;BME280;31265;49.680;8.608;2023-03-23T01:36:57;99744.13;;;13.01;100.00
45541;BME280;31265;49.680;8.608;2023-03-23T01:39:25;99742.09;;;12.91;100.00
45541;BME280;31265;49.680;8.608;2023-03-23T01:41:52;99737.06;;;13.00;100.00
45541;BME280;31265;49.680;8.608;2023-03-23T01:47:27;99728.75;;;12.90;100.00
45541;BME280;31265;49.680;8.608;2023-03-23T01:49:56;99725.13;;;12.87;100.00
45541;BME280;31265;49.680;8.608;2023-03-23T01:52:26;99736.25;;;12.87;100.00
45541;BME280;31265;49.680;8.608;2023-03-23T01:55:03;99726.31;;;12.84;100.00
45541;BME280;31265;49.680;8.608;2023-03-23T01:57:31;99729.81;;;12.85;100.00
45541;BME280;31265;49.680;8.608;2023-03-23T02:00:05;99719.72;;;12.80;100.00
45541;BME280;31265;49.680;8.608;2023-03-23T02:02:42;99719.28;;;12.83;100.00
45541;BME280;31265;49.680;8.608;2023-03-23T02:05:15;99726.25;;;12.94;100.00
45541;BME280;31265;49.680;8.608;2023-03-23T02:07:47;99708.56;;;12.89;100.00
45541;BME280;31265;49.680;8.608;2023-03-23T02:10:15;99713.97;;;12.87;100.00
45541;BME280;31265;49.680;8.608;2023-03-23T02:12:43;99708.56;;;12.89;100.00
45541;BME280;31265;49.680;8.608;2023-03-23T02:15:12;99715.44;;;12.88;100.00
45541;BME280;31265;49.680;8.608;2023-03-23T02:17:45;99729.09;;;12.84;100.00
45541;BME280;31265;49.680;8.608;2023-03-23T02:20:29;99719.59;;;12.78;100.00
45541;BME280;31265;49.680;8.608;2023-03-23T02:23:17;99725.47;;;12.72;100.00
45541;BME280;31265;49.680;8.608;2023-03-23T02:25:59;99725.47;;;12.72;100.00
45541;BME280;31265;49.680;8.608;2023-03-23T02:28:41;99725.75;;;12.76;100.00
45541;BME280;31265;49.680;8.608;2023-03-23T02:31:22;99718.28;;;12.79;100.00
45541;BME280;31265;49.680;8.608;2023-03-23T02:34:01;99717.28;;;12.74;100.00
45541;BME280;31265;49.680;8.608;2023-03-23T02:36:37;99703.59;;;12.78;100.00
45541;BME280;31265;49.680;8.608;2023-03-23T02:39:13;99692.78;;;12.73;100.00
45541;BME280;31265;49.680;8.608;2023-03-23T02:41:49;99689.97;;;12.82;100.00
45541;BME280;31265;49.680;8.608;2023-03-23T02:44:18;99684.53;;;12.84;100.00
45541;BME280;31265;49.680;8.608;2023-03-23T02:46:46;99687.03;;;12.80;100.00
45541;BME280;31265;49.680;8.608;2023-03-23T02:49:16;99675.41;;;12.94;100.00
45541;BME280;31265;49.680;8.608;2023-03-23T02:51:46;99677.25;;;12.79;100.00
45541;BME280;31265;49.680;8.608;2023-03-23T02:54:16;99676.25;;;12.75;100.00
45541;BME280;31265;49.680;8.608;2023-03-23T02:56:48;99684.06;;;12.66;100.00
45541;BME280;31265;49.680;8.608;2023-03-23T02:59:22;99676.44;;;12.67;100.00
45541;BME280;31265;49.680;8.608;2023-03-23T03:01:53;99676.44;;;12.67;100.00
45541;BME280;31265;49.680;8.608;2023-03-23T03:04:25;99682.13;;;12.69;100.00
45541;BME280;31265;49.680;8.608;2023-03-23T03:07:03;99668.94;;;12.69;100.00
45541;BME280;31265;49.680;8.608;2023-03-23T03:09:40;99666.16;;;12.69;100.00
45541;BME280;31265;49.680;8.608;2023-03-23T03:12:13;99673.06;;;12.68;100.00
45541;BME280;31265;49.680;8.608;2023-03-23T03:14:49;99656.53;;;12.61;100.00
45541;BME280;31265;49.680;8.608;2023-03-23T03:17:22;99669.38;;;12.66;100.00
45541;BME280;31265;49.680;8.608;2023-03-23T03:19:56;99669.13;;;12.62;100.00
45541;BME280;31265;49.680;8.608;2023-03-23T03:22:28;99663.56;;;12.62;100.00
45541;BME280;31265;49.680;8.608;2023-03-23T03:24:57;99660.78;;;12.62;100.00
45541;BME280;31265;49.680;8.608;2023-03-23T03:27:27;99655.06;;;12.60;100.00
45541;BME280;31265;49.680;8.608;2023-03-23T03:30:13;99667.03;;;12.72;100.00
45541;BME280;31265;49.680;8.608;2023-03-23T03:32:46;99669.13;;;12.62;100.00
45541;BME280;31265;49.680;8.608;2023-03-23T03:35:19;99671.63;;;12.58;100.00
45541;BME280;31265;49.680;8.608;2023-03-23T03:37:48;99663.38;;;12.69;100.00
45541;BME280;31265;49.680;8.608;2023-03-23T03:40:18;99665.56;;;12.71;100.00
45541;BME280;31265;49.680;8.608;2023-03-23T03:42:46;99661.03;;;12.66;100.00
45541;BME280;31265;49.680;8.608;2023-03-23T03:45:16;99675.13;;;12.58;100.00
45541;BME280;31265;49.680;8.608;2023-03-23T03:47:44;99673.41;;;12.53;100.00
45541;BME280;31265;49.680;8.608;2023-03-23T03:50:12;99660.31;;;12.65;100.00
45541;BME280;31265;49.680;8.608;2023-03-23T03:52:42;99662.84;;;12.61;100.00
45541;BME280;31265;49.680;8.608;2023-03-23T03:55:10;99657.28;;;12.61;100.00
45541;BME280;31265;49.680;8.608;2023-03-23T03:57:41;99655.59;;;12.68;100.00
45541;BME280;31265;49.680;8.608;2023-03-23T04:00:18;99651.22;;;12.65;100.00
45541;BME280;31265;49.680;8.608;2023-03-23T04:02:49;99652.38;;;12.72;100.00
45541;BME280;31265;49.680;8.608;2023-03-23T04:05:32;99658.66;;;12.72;100.00
45541;BME280;31265;49.680;8.608;2023-03-23T04:08:00;99665.28;;;12.67;100.00
45541;BME280;31265;49.680;8.608;2023-03-23T04:10:32;99661.66;;;12.64;100.00
45541;BME280;31265;49.680;8.608;2023-03-23T04:13:01;99662.38;;;12.65;100.00
45541;BME280;31265;49.680;8.608;2023-03-23T04:15:30;99659.44;;;12.63;100.00
45541;BME280;31265;49.680;8.608;2023-03-23T04:17:58;99660.63;;;12.60;100.00
45541;BME280;31265;49.680;8.608;2023-03-23T04:20:25;99655.66;;;12.58;100.00
45541;BME280;31265;49.680;8.608;2023-03-23T04:22:53;99661.97;;;12.59;100.00
45541;BME280;31265;49.680;8.608;2023-03-23T04:25:24;99663.03;;;12.54;100.00
45541;BME280;31265;49.680;8.608;2023-03-23T04:27:54;99672.66;;;12.53;100.00
45541;BME280;31265;49.680;8.608;2023-03-23T04:30:27;99674.19;;;12.44;100.00
45541;BME280;31265;49.680;8.608;2023-03-23T04:33:14;99682.50;;;12.54;100.00
45541;BME280;31265;49.680;8.608;2023-03-23T04:35:47;99695.69;;;12.43;100.00
45541;BME280;31265;49.680;8.608;2023-03-23T04:38:40;99688.84;;;12.35;100.00
45541;BME280;31265;49.680;8.608;2023-03-23T04:41:16;99696.47;;;12.34;100.00
45541;BME280;31265;49.680;8.608;2023-03-23T04:43:55;99696.47;;;12.34;100.00
45541;BME280;31265;49.680;8.608;2023-03-23T04:46:32;99693.81;;;12.36;100.00
45541;BME280;31265;49.680;8.608;2023-03-23T04:49:06;99692.50;;;12.37;100.00
45541;BME280;31265;49.680;8.608;2023-03-23T04:51:38;99701.88;;;12.32;100.00
45541;BME280;31265;49.680;8.608;2023-03-23T04:54:20;99700.88;;;12.27;100.00
45541;BME280;31265;49.680;8.608;2023-03-23T04:56:52;99707.31;;;12.30;100.00
45541;BME280;31265;49.680;8.608;2023-03-23T04:59:20;99709.94;;;12.28;100.00
45541;BME280;31265;49.680;8.608;2023-03-23T05:02:08;99713.31;;;12.26;100.00
45541;BME280;31265;49.680;8.608;2023-03-23T05:04:36;99712.16;;;12.20;100.00
45541;BME280;31265;49.680;8.608;2023-03-23T05:07:10;99704.41;;;12.18;100.00
45541;BME280;31265;49.680;8.608;2023-03-23T05:09:46;99702.22;;;12.17;100.00
45541;BME280;31265;49.680;8.608;2023-03-23T05:12:17;99713.06;;;12.13;100.00
45541;BME280;31265;49.680;8.608;2023-03-23T05:14:57;99715.97;;;12.15;100.00
45541;BME280;31265;49.680;8.608;2023-03-23T05:17:27;99718.44;;;12.30;100.00
45541;BME280;31265;49.680;8.608;2023-03-23T05:19:57;99729.97;;;12.36;100.00
45541;BME280;31265;49.680;8.608;2023-03-23T05:22:40;99731.44;;;12.37;100.00
45541;BME280;31265;49.680;8.608;2023-03-23T05:25:11;99731.31;;;12.35;100.00
45541;BME280;31265;49.680;8.608;2023-03-23T05:27:45;99738.91;;;12.44;100.00
45541;BME280;31265;49.680;8.608;2023-03-23T05:30:37;99742.72;;;12.39;100.00
45541;BME280;31265;49.680;8.608;2023-03-23T05:33:06;99739.94;;;12.39;100.00
45541;BME280;31265;49.680;8.608;2023-03-23T05:35:45;99745.16;;;12.55;100.00
45541;BME280;31265;49.680;8.608;2023-03-23T05:38:15;99759.28;;;12.78;100.00
45541;BME280;31265;49.680;8.608;2023-03-23T05:40:44;99751.69;;;13.10;100.00
45541;BME280;31265;49.680;8.608;2023-03-23T05:43:19;99750.38;;;13.11;100.00
45541;BME280;31265;49.680;8.608;2023-03-23T05:46:13;99760.16;;;13.12;100.00
45541;BME280;31265;49.680;8.608;2023-03-23T05:48:41;99748.38;;;13.33;100.00
45541;BME280;31265;49.680;8.608;2023-03-23T05:51:13;99755.28;;;13.22;100.00
45541;BME280;31265;49.680;8.608;2023-03-23T05:53:43;99756.25;;;13.37;100.00
45541;BME280;31265;49.680;8.608;2023-03-23T05:56:14;99750.53;;;13.34;100.00
45541;BME280;31265;49.680;8.608;2023-03-23T05:59:11;99755.25;;;13.32;100.00
45541;BME280;31265;49.680;8.608;2023-03-23T06:01:52;99761.47;;;13.21;100.00
45541;BME280;31265;49.680;8.608;2023-03-23T06:04:21;99766.13;;;13.28;100.00
45541;BME280;31265;49.680;8.608;2023-03-23T06:07:04;99759.53;;;13.23;100.00
45541;BME280;31265;49.680;8.608;2023-03-23T06:09:32;99765.28;;;13.16;100.00
45541;BME280;31265;49.680;8.608;2023-03-23T06:12:06;99768.94;;;13.28;100.00
45541;BME280;31265;49.680;8.608;2023-03-23T06:14:58;99770.69;;;13.23;100.00
45541;BME280;31265;49.680;8.608;2023-03-23T06:17:48;99766.59;;;13.15;100.00
45541;BME280;31265;49.680;8.608;2023-03-23T06:20:19;99777.41;;;13.20;100.00
45541;BME280;31265;49.680;8.608;2023-03-23T06:22:46;99777.16;;;13.16;100.00
45541;BME280;31265;49.680;8.608;2023-03-23T06:25:24;99779.34;;;13.18;100.00
45541;BME280;31265;49.680;8.608;2023-03-23T06:27:56;99774.38;;;13.16;100.00
45541;BME280;31265;49.680;8.608;2023-03-23T06:30:38;99777.16;;;13.16;100.00
45541;BME280;31265;49.680;8.608;2023-03-23T06:33:06;99785.38;;;13.14;100.00
45541;BME280;31265;49.680;8.608;2023-03-23T06:35:56;99782.16;;;13.08;100.00
45541;BME280;31265;49.680;8.608;2023-03-23T06:38:43;99791.72;;;13.05;100.00
45541;BME280;31265;49.680;8.608;2023-03-23T06:41:12;99784.69;;;13.04;100.00
45541;BME280;31265;49.680;8.608;2023-03-23T06:43:40;99784.19;;;13.17;100.00
45541;BME280;31265;49.680;8.608;2023-03-23T06:46:15;99790.66;;;13.10;100.00
45541;BME280;31265;49.680;8.608;2023-03-23T06:49:02;99795.19;;;13.15;100.00
45541;BME280;31265;49.680;8.608;2023-03-23T06:51:38;99797.25;;;13.15;100.00
45541;BME280;31265;49.680;8.608;2023-03-23T06:54:07;99817.06;;;13.09;100.00
45541;BME280;31265;49.680;8.608;2023-03-23T06:56:38;99812.81;;;13.08;100.00
45541;BME280;31265;49.680;8.608;2023-03-23T06:59:07;99797.97;;;13.15;100.00
45541;BME280;31265;49.680;8.608;2023-03-23T07:01:39;99802.91;;;13.26;100.00
45541;BME280;31265;49.680;8.608;2023-03-23T07:04:06;99811.13;;;13.24;100.00
45541;BME280;31265;49.680;8.608;2023-03-23T07:06:46;99819.63;;;13.26;100.00
45541;BME280;31265;49.680;8.608;2023-03-23T07:09:14;99827.16;;;13.14;100.00
45541;BME280;31265;49.680;8.608;2023-03-23T07:11:41;99824.84;;;13.10;100.00
45541;BME280;31265;49.680;8.608;2023-03-23T07:14:20;99815.09;;;13.21;100.00
45541;BME280;31265;49.680;8.608;2023-03-23T07:16:52;99814.97;;;13.19;100.00
45541;BME280;31265;49.680;8.608;2023-03-23T07:19:20;99824.09;;;13.10;100.00
45541;BME280;31265;49.680;8.608;2023-03-23T07:21:47;99821.13;;;13.18;100.00
45541;BME280;31265;49.680;8.608;2023-03-23T07:24:16;99821.72;;;13.16;100.00
45541;BME280;31265;49.680;8.608;2023-03-23T07:27:01;99820.25;;;13.15;100.00
45541;BME280;31265;49.680;8.608;2023-03-23T07:29:30;99812.19;;;13.19;100.00
45541;BME280;31265;49.680;8.608;2023-03-23T07:32:11;99824.09;;;13.10;100.00
45541;BME280;31265;49.680;8.608;2023-03-23T07:34:38;99822.50;;;13.07;100.00
45541;BME280;31265;49.680;8.608;2023-03-23T07:37:21;99819.84;;;13.09;100.00
45541;BME280;31265;49.680;8.608;2023-03-23T07:39:49;99827.66;;;13.01;100.00
45541;BME280;31265;49.680;8.608;2023-03-23T07:42:19;99825.47;;;12.99;100.00
45541;BME280;31265;49.680;8.608;2023-03-23T07:44:49;99842.00;;;13.07;100.00
45541;BME280;31265;49.680;8.608;2023-03-23T07:47:19;99853.28;;;13.09;100.00
45541;BME280;31265;49.680;8.608;2023-03-23T07:49:48;99854.63;;;12.98;100.00
45541;BME280;31265;49.680;8.608;2023-03-23T07:52:34;99856.34;;;13.13;100.00
45541;BME280;31265;49.680;8.608;2023-03-23T07:55:04;99855.16;;;13.16;100.00
45541;BME280;31265;49.680;8.608;2023-03-23T07:57:44;99848.97;;;13.18;100.00
45541;BME280;31265;49.680;8.608;2023-03-23T08:00:13;99854.09;;;13.21;100.00
45541;BME280;31265;49.680;8.608;2023-03-23T08:02:48;99844.88;;;13.19;100.00
45541;BME280;31265;49.680;8.608;2023-03-23T08:05:29;99853.56;;;13.13;100.00
45541;BME280;31265;49.680;8.608;2023-03-23T08:08:14;99850.31;;;13.17;100.00
45541;BME280;31265;49.680;8.608;2023-03-23T08:11:07;99858.41;;;13.03;100.00
45541;BME280;31265;49.680;8.608;2023-03-23T08:13:40;99861.19;;;13.03;100.00
45541;BME280;31265;49.680;8.608;2023-03-23T08:16:19;99868.22;;;13.13;100.00
45541;BME280;31265;49.680;8.608;2023-03-23T08:19:13;99873.22;;;12.96;100.00
45541;BME280;31265;49.680;8.608;2023-03-23T08:22:13;99877.03;;;13.00;100.00
45541;BME280;31265;49.680;8.608;2023-03-23T08:25:01;99875.59;;;12.99;100.00
45541;BME280;31265;49.680;8.608;2023-03-23T08:27:49;99874.41;;;12.93;100.00
45541;BME280;31265;49.680;8.608;2023-03-23T08:30:43;99880.44;;;12.89;100.00
45541;BME280;31265;49.680;8.608;2023-03-23T08:33:21;99883.06;;;12.97;100.00
45541;BME280;31265;49.680;8.608;2023-03-23T08:36:09;99880.84;;;12.95;100.00
45541;BME280;31265;49.680;8.608;2023-03-23T08:39:02;99891.59;;;12.89;100.00
45541;BME280;31265;49.680;8.608;2023-03-23T08:41:49;99897.28;;;13.01;100.00
45541;BME280;31265;49.680;8.608;2023-03-23T08:44:25;99899.22;;;12.88;100.00
45541;BME280;31265;49.680;8.608;2023-03-23T08:47:03;99901.56;;;12.82;100.00
45541;BME280;31265;49.680;8.608;2023-03-23T08:49:54;99906.22;;;12.89;100.00
45541;BME280;31265;49.680;8.608;2023-03-23T08:52:38;99909.88;;;12.92;100.00
45541;BME280;31265;49.680;8.608;2023-03-23T08:55:29;99913.53;;;12.95;100.00
45541;BME280;31265;49.680;8.608;2023-03-23T08:58:23;99906.53;;;12.84;100.00
45541;BME280;31265;49.680;8.608;2023-03-23T09:01:13;99911.22;;;12.91;100.00
45541;BME280;31265;49.680;8.608;2023-03-23T09:03:44;99916.78;;;12.91;100.00
45541;BME280;31265;49.680;8.608;2023-03-23T09:06:45;99922.94;;;12.89;100.00
45541;BME280;31265;49.680;8.608;2023-03-23T09:09:14;99923.22;;;12.94;100.00
45541;BME280;31265;49.680;8.608;2023-03-23T09:11:41;99916.94;;;12.83;100.00
45541;BME280;31265;49.680;8.608;2023-03-23T09:14:09;99919.84;;;12.95;100.00
45541;BME280;31265;49.680;8.608;2023-03-23T09:16:39;99928.63;;;13.01;100.00
45541;BME280;31265;49.680;8.608;2023-03-23T09:19:08;99924.34;;;13.10;100.00
45541;BME280;31265;49.680;8.608;2023-03-23T09:21:36;99931.84;;;13.07;100.00
45541;BME280;31265;49.680;8.608;2023-03-23T09:24:04;99935.50;;;13.10;100.00
45541;BME280;31265;49.680;8.608;2023-03-23T09:26:33;99941.91;;;13.22;100.00
45541;BME280;31265;49.680;8.608;2023-03-23T09:29:01;99932.97;;;13.24;100.00
45541;BME280;31265;49.680;8.608;2023-03-23T09:31:28;99939.44;;;13.26;100.00
45541;BME280;31265;49.680;8.608;2023-03-23T09:33:57;99940.84;;;13.47;100.00
45541;BME280;31265;49.680;8.608;2023-03-23T09:36:25;99941.34;;;13.65;100.00
45541;BME280;31265;49.680;8.608;2023-03-23T09:38:55;99934.56;;;13.77;100.00
45541;BME280;31265;49.680;8.608;2023-03-23T09:41:42;99938.47;;;13.84;100.00
45541;BME280;31265;49.680;8.608;2023-03-23T09:44:17;99949.94;;;14.10;100.00
45541;BME280;31265;49.680;8.608;2023-03-23T09:46:54;99946.25;;;14.17;100.00
45541;BME280;31265;49.680;8.608;2023-03-23T09:49:27;99935.25;;;14.31;100.00
45541;BME280;31265;49.680;8.608;2023-03-23T09:51:59;99947.94;;;14.44;100.00
45541;BME280;31265;49.680;8.608;2023-03-23T09:54:34;99953.88;;;14.59;100.00
45541;BME280;31265;49.680;8.608;2023-03-23T09:57:04;99957.06;;;14.66;100.00
45541;BME280;31265;49.680;8.608;2023-03-23T09:59:42;99953.16;;;14.59;100.00
45541;BME280;31265;49.680;8.608;2023-03-23T10:02:14;99946.75;;;14.68;100.00
45541;BME280;31265;49.680;8.608;2023-03-23T10:04:44;99939.41;;;14.84;100.00
45541;BME280;31265;49.680;8.608;2023-03-23T10:07:14;99940.34;;;14.77;100.00
45541;BME280;31265;49.680;8.608;2023-03-23T10:09:43;99943.50;;;14.72;100.00
45541;BME280;31265;49.680;8.608;2023-03-23T10:12:21;99933.06;;;14.72;100.00
45541;BME280;31265;49.680;8.608;2023-03-23T10:14:58;99937.19;;;14.50;100.00
45541;BME280;31265;49.680;8.608;2023-03-23T10:17:31;99930.41;;;14.53;100.00
45541;BME280;31265;49.680;8.608;2023-03-23T10:20:13;99934.91;;;14.36;100.00
45541;BME280;31265;49.680;8.608;2023-03-23T10:22:49;99928.22;;;14.30;100.00
45541;BME280;31265;49.680;8.608;2023-03-23T10:25:21;99939.91;;;14.38;100.00
45541;BME280;31265;49.680;8.608;2023-03-23T10:27:56;99924.63;;;14.60;100.00
45541;BME280;31265;49.680;8.608;2023-03-23T10:30:29;99928.34;;;14.75;100.00
45541;BME280;31265;49.680;8.608;2023-03-23T10:33:02;99926.31;;;14.87;100.00
45541;BME280;31265;49.680;8.608;2023-03-23T10:35:35;99918.28;;;14.93;100.00
45541;BME280;31265;49.680;8.608;2023-03-23T10:38:06;99931.06;;;14.96;100.00
45541;BME280;31265;49.680;8.608;2023-03-23T10:40:47;99936.72;;;14.75;100.00
45541;BME280;31265;49.680;8.608;2023-03-23T10:43:17;99932.34;;;14.83;100.00
45541;BME280;31265;49.680;8.608;2023-03-23T10:45:48;99936.72;;;14.75;100.00
45541;BME280;31265;49.680;8.608;2023-03-23T10:48:25;99947.75;;;14.73;100.00
45541;BME280;31265;49.680;8.608;2023-03-23T10:50:56;99941.66;;;14.65;100.00
45541;BME280;31265;49.680;8.608;2023-03-23T10:53:31;99937.41;;;14.20;100.00
45541;BME280;31265;49.680;8.608;2023-03-23T10:55:59;99938.91;;;14.33;100.00
45541;BME280;31265;49.680;8.608;2023-03-23T10:58:29;99937.31;;;14.52;100.00
45541;BME280;31265;49.680;8.608;2023-03-23T11:00:58;99938.56;;;14.39;100.00
45541;BME280;31265;49.680;8.608;2023-03-23T11:03:37;99941.38;;;14.39;100.00
45541;BME280;31265;49.680;8.608;2023-03-23T11:06:07;99935.19;;;14.40;100.00
45541;BME280;31265;49.680;8.608;2023-03-23T11:08:38;99937.47;;;14.32;100.00
45541;BME280;31265;49.680;8.608;2023-03-23T11:11:10;99937.41;;;14.20;100.00
45541;BME280;31265;49.680;8.608;2023-03-23T11:13:43;99946.94;;;14.39;100.00
45541;BME280;31265;49.680;8.608;2023-03-23T11:16:10;99948.63;;;14.32;100.00
45541;BME280;31265;49.680;8.608;2023-03-23T11:18:40;99948.16;;;14.14;100.00
45541;BME280;31265;49.680;8.608;2023-03-23T11:21:11;99961.34;;;13.92;100.00
45541;BME280;31265;49.680;8.608;2023-03-23T11:23:41;99947.13;;;13.88;100.00
45541;BME280;31265;49.680;8.608;2023-03-23T11:26:13;99958.03;;;13.74;100.00
45541;BME280;31265;49.680;8.608;2023-03-23T11:28:48;99955.13;;;13.72;100.00
45541;BME280;31265;49.680;8.608;2023-03-23T11:31:21;99946.84;;;13.53;100.00
45541;BME280;31265;49.680;8.608;2023-03-23T11:33:53;99946.56;;;13.49;100.00
45541;BME280;31265;49.680;8.608;2023-03-23T11:36:29;99947.75;;;13.46;100.00
45541;BME280;31265;49.680;8.608;2023-03-23T11:38:57;99946.41;;;13.47;100.00
45541;BME280;31265;49.680;8.608;2023-03-23T11:41:32;99947.91;;;13.48;100.00
45541;BME280;31265;49.680;8.608;2023-03-23T11:44:09;99944.50;;;13.49;100.00
45541;BME280;31265;49.680;8.608;2023-03-23T11:46:45;99941.47;;;13.76;100.00
45541;BME280;31265;49.680;8.608;2023-03-23T11:49:22;99931.81;;;13.68;100.00
45541;BME280;31265;49.680;8.608;2023-03-23T11:51:55;99933.56;;;13.73;100.00
45541;BME280;31265;49.680;8.608;2023-03-23T11:54:33;99925.63;;;13.69;100.00
45541;BME280;31265;49.680;8.608;2023-03-23T11:57:06;99933.97;;;13.79;100.00
45541;BME280;31265;49.680;8.608;2023-03-23T11:59:36;99936.03;;;13.79;100.00
45541;BME280;31265;49.680;8.608;2023-03-23T12:02:28;99927.75;;;13.59;100.00
45541;BME280;31265;49.680;8.608;2023-03-23T12:05:30;99930.63;;;13.71;100.00
45541;BME280;31265;49.680;8.608;2023-03-23T12:08:10;99921.34;;;13.47;100.00
45541;BME280;31265;49.680;8.608;2023-03-23T12:10:43;99919.75;;;13.44;100.00
45541;BME280;31265;49.680;8.608;2023-03-23T12:13:41;99928.66;;;13.52;100.00
45541;BME280;31265;49.680;8.608;2023-03-23T12:16:29;99928.84;;;13.75;100.00
45541;BME280;31265;49.680;8.608;2023-03-23T12:19:03;99932.47;;;13.88;100.00
45541;BME280;31265;49.680;8.608;2023-03-23T12:21:42;99923.09;;;13.83;100.00
45541;BME280;31265;49.680;8.608;2023-03-23T12:24:23;99922.41;;;13.94;100.00
45541;BME280;31265;49.680;8.608;2023-03-23T12:27:00;99906.16;;;14.34;100.00
45541;BME280;31265;49.680;8.608;2023-03-23T12:32:35;99900.84;;;15.04;100.00
45541;BME280;31265;49.680;8.608;2023-03-23T12:35:21;99899.91;;;14.78;100.00
45541;BME280;31265;49.680;8.608;2023-03-23T12:38:02;99888.91;;;14.92;100.00
45541;BME280;31265;49.680;8.608;2023-03-23T12:40:59;99876.75;;;14.88;100.00
45541;BME280;31265;49.680;8.608;2023-03-23T12:43:36;99862.00;;;15.09;100.00
45541;BME280;31265;49.680;8.608;2023-03-23T12:46:16;99865.03;;;15.24;100.00
45541;BME280;31265;49.680;8.608;2023-03-23T12:48:52;99862.47;;;15.17;100.00
45541;BME280;31265;49.680;8.608;2023-03-23T12:51:26;99852.50;;;15.37;100.00
45541;BME280;31265;49.680;8.608;2023-03-23T12:53:58;99858.22;;;15.63;100.00
45541;BME280;31265;49.680;8.608;2023-03-23T12:56:32;99864.19;;;15.34;100.00
45541;BME280;31265;49.680;8.608;2023-03-23T12:59:17;99866.94;;;15.10;100.00
45541;BME280;31265;49.680;8.608;2023-03-23T13:01:47;99866.38;;;15.47;100.00
45541;BME280;31265;49.680;8.608;2023-03-23T13:04:21;99861.75;;;15.52;100.00
45541;BME280;31265;49.680;8.608;2023-03-23T13:06:48;99856.16;;;15.75;100.00
45541;BME280;31265;49.680;8.608;2023-03-23T13:09:18;99840.09;;;15.64;100.00
45541;BME280;31265;49.680;8.608;2023-03-23T13:11:49;99860.78;;;15.59;100.00
45541;BME280;31265;49.680;8.608;2023-03-23T13:14:24;99843.03;;;15.31;100.00
45541;BME280;31265;49.680;8.608;2023-03-23T13:17:02;99861.63;;;15.38;100.00
45541;BME280;31265;49.680;8.608;2023-03-23T13:19:53;99852.28;;;15.33;100.00
45541;BME280;31265;49.680;8.608;2023-03-23T13:22:30;99851.06;;;15.36;100.00
45541;BME280;31265;49.680;8.608;2023-03-23T13:25:02;99856.16;;;15.52;100.00
45541;BME280;31265;49.680;8.608;2023-03-23T13:27:30;99848.84;;;15.58;100.00
45541;BME280;31265;49.680;8.608;2023-03-23T13:29:57;99866.13;;;15.55;100.00
45541;BME280;31265;49.680;8.608;2023-03-23T13:32:31;99852.63;;;15.27;100.00